Time;durP1;ratioP1;P1;durP2;ratioP2;P2;SDS_P1;SDS_P2;PMS_P1;PMS_P2;Temp;Humidity;BMP_temperature;BMP_pressure;BME280_temperature;BME280_humidity;BME280_pressure;Samples;Min_cycle;Max_cycle;Signal;HPM_P1;HPM_P2
2022/01/03 00:02:33;;;;;;;2.83;2.50;;;12.60;99.90;;;;;;10539185;28;20226;-80
2022/01/03 00:07:38;;;;;;;2.17;2.07;;;12.60;99.90;;;;;;10515709;28;20207;-80
2022/01/03 00:12:42;;;;;;;2.50;2.30;;;12.60;99.90;;;;;;10536764;28;20212;-80
2022/01/03 00:17:46;;;;;;;2.80;2.30;;;12.60;99.90;;;;;;10537752;28;20691;-81
2022/01/03 00:22:54;;;;;;;3.03;1.70;;;12.60;99.90;;;;;;10538711;28;20691;-81
2022/01/03 00:28:12;;;;;;;3.20;2.27;;;12.60;99.90;;;;;;10539231;28;20289;-81
2022/01/03 00:33:16;;;;;;;4.77;2.30;;;12.70;99.90;;;;;;10535730;28;20298;-81
2022/01/03 00:38:20;;;;;;;4.37;2.20;;;12.70;99.90;;;;;;10536604;28;20195;-80
2022/01/03 00:43:26;;;;;;;4.33;2.30;;;12.70;99.90;;;;;;10545557;28;20311;-80
2022/01/03 00:48:29;;;;;;;3.57;2.30;;;12.80;99.90;;;;;;10549197;28;20320;-79
2022/01/03 00:53:32;;;;;;;3.20;2.23;;;12.80;99.90;;;;;;10546491;28;20223;-78
2022/01/03 00:58:47;;;;;;;2.50;2.10;;;12.80;99.90;;;;;;10543241;28;20200;-81
2022/01/03 01:03:54;;;;;;;2.27;2.07;;;12.80;99.90;;;;;;10544514;28;20226;-81
2022/01/03 01:08:57;;;;;;;4.77;2.33;;;12.90;99.90;;;;;;10537869;28;20284;-81
2022/01/03 01:14:03;;;;;;;2.40;2.20;;;12.80;99.90;;;;;;10547038;28;20220;-81
2022/01/03 01:19:06;;;;;;;3.17;2.23;;;12.90;99.90;;;;;;10548286;28;20676;-80
2022/01/03 01:24:08;;;;;;;2.90;1.97;;;12.80;99.90;;;;;;10525962;28;20231;-82
2022/01/03 01:29:13;;;;;;;2.83;1.90;;;12.80;99.90;;;;;;10544515;28;20224;-81
2022/01/03 01:34:21;;;;;;;2.93;1.80;;;12.80;99.90;;;;;;10545706;28;20691;-81
2022/01/03 01:39:26;;;;;;;3.97;2.70;;;12.80;99.90;;;;;;10548770;28;20294;-80
2022/01/03 01:44:36;;;;;;;3.90;2.40;;;12.70;99.90;;;;;;10546644;28;20322;-80
2022/01/03 01:49:46;;;;;;;3.93;2.20;;;12.70;99.90;;;;;;10540970;28;20196;-80
2022/01/03 01:54:55;;;;;;;7.93;1.93;;;12.70;99.90;;;;;;10541462;28;20576;-81
2022/01/03 02:00:08;;;;;;;5.27;2.10;;;12.70;99.90;;;;;;10541607;28;20210;-80
2022/01/03 02:05:21;;;;;;;2.70;2.20;;;12.70;99.90;;;;;;10514304;28;20235;-81
2022/01/03 02:10:38;;;;;;;4.60;2.57;;;12.70;99.90;;;;;;10511932;28;20208;-81
2022/01/03 02:15:46;;;;;;;3.63;2.50;;;12.70;99.90;;;;;;10517597;28;20274;-79
2022/01/03 02:20:50;;;;;;;3.13;2.40;;;12.70;99.90;;;;;;10512126;28;20212;-81
2022/01/03 02:25:53;;;;;;;3.13;2.40;;;12.70;99.90;;;;;;10517240;28;20216;-79
2022/01/03 02:30:55;;;;;;;2.80;2.37;;;12.70;99.90;;;;;;10505104;28;20280;-79
2022/01/03 02:35:59;;;;;;;1.80;1.70;;;12.70;99.90;;;;;;10522917;28;20212;-79
2022/01/03 02:41:01;;;;;;;4.70;2.60;;;12.70;99.90;;;;;;10500185;28;20216;-78
2022/01/03 02:46:04;;;;;;;5.80;2.30;;;12.70;99.90;;;;;;10519833;28;20265;-79
2022/01/03 02:51:08;;;;;;;2.60;2.40;;;12.70;99.90;;;;;;10528525;28;20244;-78
2022/01/03 02:56:10;;;;;;;3.07;1.93;;;12.70;99.90;;;;;;10537831;28;20203;-79
2022/01/03 03:01:12;;;;;;;3.30;2.17;;;12.70;99.90;;;;;;10542082;28;20246;-78
2022/01/03 03:06:24;;;;;;;3.10;2.37;;;12.70;99.90;;;;;;10537651;28;20251;-78
2022/01/03 03:11:27;;;;;;;3.73;2.10;;;12.70;99.90;;;;;;10534087;28;20250;-79
2022/01/03 03:16:29;;;;;;;2.80;2.33;;;12.60;99.90;;;;;;10531795;28;20679;-78
2022/01/03 03:21:33;;;;;;;3.83;2.33;;;12.60;99.90;;;;;;10527398;28;20299;-79
2022/01/03 03:26:35;;;;;;;3.33;2.20;;;12.50;99.90;;;;;;10535553;28;20196;-79
2022/01/03 03:31:37;;;;;;;2.30;2.10;;;12.50;99.90;;;;;;10539528;28;20228;-78
2022/01/03 03:36:41;;;;;;;3.13;2.30;;;12.40;99.90;;;;;;10538969;28;20276;-78
2022/01/03 03:41:43;;;;;;;2.20;2.00;;;12.40;99.90;;;;;;10516909;28;20220;-78
2022/01/03 03:46:46;;;;;;;4.77;2.20;;;12.30;99.90;;;;;;10512966;28;20573;-78
2022/01/03 03:51:49;;;;;;;3.23;2.10;;;12.30;99.90;;;;;;10482673;28;1088757;-78
2022/01/03 03:56:52;;;;;;;3.70;2.43;;;12.20;99.90;;;;;;10532281;28;20618;-78
2022/01/03 04:01:55;;;;;;;7.00;2.17;;;12.20;99.90;;;;;;10530763;28;20230;-80
2022/01/03 04:06:58;;;;;;;3.17;2.17;;;12.20;99.90;;;;;;10516396;28;20204;-78
2022/01/03 04:12:01;;;;;;;4.03;1.90;;;12.20;99.90;;;;;;10532185;28;20283;-78
2022/01/03 04:17:04;;;;;;;2.60;2.30;;;12.10;99.90;;;;;;10531168;28;20286;-78
2022/01/03 04:22:08;;;;;;;5.87;1.93;;;12.10;99.90;;;;;;10519063;28;20234;-78
2022/01/03 04:27:10;;;;;;;3.23;2.10;;;12.10;99.90;;;;;;10537437;28;20207;-79
2022/01/03 04:32:13;;;;;;;4.33;2.13;;;12.10;99.90;;;;;;10522696;28;20222;-78
2022/01/03 04:37:16;;;;;;;6.10;2.20;;;12.10;99.90;;;;;;10536690;28;20202;-78
2022/01/03 04:42:19;;;;;;;3.07;1.90;;;12.10;99.90;;;;;;10536602;28;20222;-78
2022/01/03 04:47:21;;;;;;;2.90;2.30;;;12.10;99.90;;;;;;10536585;28;20196;-79
2022/01/03 04:52:26;;;;;;;4.97;2.67;;;12.20;99.90;;;;;;10534250;28;20223;-79
2022/01/03 04:57:28;;;;;;;5.10;2.40;;;12.20;99.90;;;;;;10521995;28;20250;-78
2022/01/03 05:02:31;;;;;;;7.40;2.50;;;12.20;99.90;;;;;;10486492;28;20213;-78
2022/01/03 05:07:38;;;;;;;1.90;1.80;;;12.20;99.90;;;;;;10503680;28;20676;-78
2022/01/03 05:12:40;;;;;;;2.50;2.07;;;12.10;99.90;;;;;;10503923;28;20216;-79
2022/01/03 05:17:42;;;;;;;2.80;2.10;;;12.00;99.90;;;;;;10527502;28;20208;-79
2022/01/03 05:22:46;;;;;;;4.47;2.53;;;11.90;99.90;;;;;;10527045;28;20255;-79
2022/01/03 05:27:50;;;;;;;6.83;2.77;;;11.80;99.90;;;;;;10542100;28;20222;-80
2022/01/03 05:32:53;;;;;;;2.40;2.03;;;11.60;99.90;;;;;;10541870;28;20235;-79
2022/01/03 05:37:57;;;;;;;5.87;3.10;;;11.50;99.90;;;;;;10538257;28;20257;-78
2022/01/03 05:42:59;;;;;;;4.53;2.77;;;11.30;99.90;;;;;;10536680;28;20226;-77
2022/01/03 05:48:02;;;;;;;6.30;2.70;;;11.20;99.90;;;;;;10531836;28;20208;-78
2022/01/03 05:53:07;;;;;;;8.67;3.13;;;11.10;99.90;;;;;;10538153;28;20227;-78
2022/01/03 05:58:09;;;;;;;16.40;3.80;;;11.10;99.90;;;;;;10527416;28;20676;-78
2022/01/03 06:03:14;;;;;;;7.20;3.03;;;10.90;99.90;;;;;;10540517;28;20223;-79
2022/01/03 06:08:18;;;;;;;6.17;2.20;;;10.80;99.90;;;;;;10519858;28;20296;-77
2022/01/03 06:13:24;;;;;;;8.27;2.67;;;10.80;99.90;;;;;;10518140;28;20219;-77
2022/01/03 06:18:30;;;;;;;5.53;2.50;;;10.70;99.90;;;;;;10514679;28;20291;-79
2022/01/03 06:23:40;;;;;;;7.40;3.00;;;10.70;99.90;;;;;;10532510;28;20231;-79
2022/01/03 06:28:42;;;;;;;3.30;2.67;;;10.80;99.90;;;;;;10538167;28;20200;-77
2022/01/03 06:33:46;;;;;;;3.50;2.40;;;10.80;99.90;;;;;;10539249;28;20219;-78
2022/01/03 06:38:50;;;;;;;3.20;2.20;;;10.90;99.90;;;;;;10523592;28;20208;-77
2022/01/03 06:43:53;;;;;;;4.63;2.30;;;10.90;99.90;;;;;;10501076;28;20224;-77
2022/01/03 06:48:56;;;;;;;4.50;2.67;;;10.90;99.90;;;;;;10531478;28;20671;-77
2022/01/03 06:54:01;;;;;;;7.10;3.10;;;10.90;99.90;;;;;;10537266;28;20307;-79
2022/01/03 06:59:05;;;;;;;4.77;3.33;;;10.90;99.90;;;;;;10520916;28;20203;-79
2022/01/03 07:04:07;;;;;;;3.70;3.00;;;10.80;99.90;;;;;;10543668;28;20272;-79
2022/01/03 07:09:11;;;;;;;8.67;3.20;;;10.70;99.90;;;;;;10539863;28;20207;-79
2022/01/03 07:19:32;;;;;;;5.60;3.70;;;10.60;99.90;;;;;;10542372;28;20217;-79
2022/01/03 07:24:37;;;;;;;9.67;4.20;;;10.50;99.90;;;;;;10538669;28;20238;-80
2022/01/03 07:29:40;;;;;;;6.30;3.83;;;10.50;99.90;;;;;;10544758;28;20200;-79
2022/01/03 07:34:45;;;;;;;11.40;4.73;;;10.50;99.90;;;;;;10546788;28;20323;-78
2022/01/03 07:39:48;;;;;;;6.27;4.90;;;10.60;99.90;;;;;;10531248;28;20658;-78
2022/01/03 07:44:51;;;;;;;7.23;5.67;;;10.40;99.90;;;;;;10533856;28;20332;-80
2022/01/03 07:49:53;;;;;;;7.27;5.77;;;10.40;99.90;;;;;;10487173;28;20188;-78
2022/01/03 07:54:56;;;;;;;7.37;6.67;;;10.30;99.90;;;;;;10502919;28;20216;-78
2022/01/03 07:59:59;;;;;;;8.03;6.40;;;10.20;99.90;;;;;;10506639;28;20280;-77
2022/01/03 08:05:01;;;;;;;9.80;6.13;;;10.30;99.90;;;;;;10504051;28;20742;-79
2022/01/03 08:10:06;;;;;;;7.90;5.50;;;10.30;99.90;;;;;;10505262;28;20270;-77
2022/01/03 08:15:09;;;;;;;5.20;4.70;;;10.40;99.90;;;;;;10499266;28;20231;-76
2022/01/03 08:20:12;;;;;;;7.50;4.90;;;10.30;99.90;;;;;;10520045;28;20291;-76
2022/01/03 08:25:18;;;;;;;8.30;4.90;;;10.30;99.90;;;;;;10530769;28;20667;-77
2022/01/03 08:30:20;;;;;;;7.57;4.10;;;10.20;99.90;;;;;;10527596;28;20210;-77
2022/01/03 08:35:24;;;;;;;6.30;5.30;;;10.30;99.90;;;;;;10528186;28;20219;-77
2022/01/03 08:40:27;;;;;;;13.77;4.87;;;10.30;99.90;;;;;;10518725;28;20736;-77
2022/01/03 08:45:30;;;;;;;9.30;4.07;;;10.40;99.90;;;;;;10535511;28;20230;-78
2022/01/03 08:50:32;;;;;;;6.10;5.03;;;10.50;99.90;;;;;;10537425;28;20676;-78
2022/01/03 08:55:35;;;;;;;6.47;4.40;;;10.60;99.90;;;;;;10525006;28;20223;-77
2022/01/03 09:00:37;;;;;;;14.50;5.70;;;10.80;99.90;;;;;;10537458;28;20207;-77
2022/01/03 09:05:40;;;;;;;10.67;5.17;;;10.90;99.90;;;;;;10525229;28;20228;-78
2022/01/03 09:10:43;;;;;;;9.97;5.03;;;11.00;99.90;;;;;;10546578;28;20196;-78
2022/01/03 09:15:46;;;;;;;7.60;4.27;;;11.00;99.90;;;;;;10547433;28;20621;-79
2022/01/03 09:20:49;;;;;;;12.73;5.70;;;11.10;99.90;;;;;;10548154;28;20200;-77
2022/01/03 09:31:12;;;;;;;6.37;3.77;;;11.20;99.90;;;;;;10536438;28;20204;-77
2022/01/03 09:36:15;;;;;;;6.57;3.83;;;11.30;99.90;;;;;;10538094;28;20635;-76
2022/01/03 09:41:20;;;;;;;11.30;3.70;;;11.40;99.90;;;;;;10509531;28;20719;-77
2022/01/03 09:46:27;;;;;;;6.67;3.70;;;11.40;99.90;;;;;;10502699;28;20223;-76
2022/01/03 09:51:32;;;;;;;6.07;3.20;;;11.50;99.90;;;;;;10517684;28;20236;-76
2022/01/03 09:56:38;;;;;;;6.83;2.80;;;11.50;99.90;;;;;;10533510;28;20675;-76
2022/01/03 10:01:42;;;;;;;3.70;2.60;;;11.60;99.90;;;;;;10534934;28;20224;-76
2022/01/03 10:06:44;;;;;;;5.60;2.60;;;11.60;99.90;;;;;;10522179;28;20382;-76
2022/01/03 10:11:48;;;;;;;6.17;2.20;;;11.70;99.90;;;;;;10533129;28;20291;-76
2022/01/03 10:16:50;;;;;;;3.07;2.37;;;11.80;99.90;;;;;;10519572;28;20234;-77
2022/01/03 10:28:28;;;;;;;5.47;2.43;;;11.90;99.90;;;;;;10471335;28;20640;-76
2022/01/03 10:33:30;;;;;;;4.23;1.73;;;12.00;99.90;;;;;;10524003;28;20322;-77
2022/01/03 10:38:36;;;;;;;5.20;2.20;;;12.00;99.90;;;;;;10520122;28;20192;-78
2022/01/03 10:43:40;;;;;;;4.43;2.20;;;12.10;99.90;;;;;;10504989;28;20291;-77
2022/01/03 10:48:42;;;;;;;4.07;2.27;;;12.10;99.90;;;;;;10521564;28;20682;-77
2022/01/03 10:53:44;;;;;;;2.73;1.60;;;12.10;99.90;;;;;;10527191;28;20714;-77
2022/01/03 10:58:48;;;;;;;4.87;1.90;;;12.20;99.90;;;;;;10534840;28;20219;-76
2022/01/03 11:03:51;;;;;;;5.93;1.80;;;12.30;99.90;;;;;;10535799;28;20231;-78
2022/01/03 11:14:32;;;;;;;3.30;2.43;;;12.40;99.90;;;;;;10532036;28;20217;-78
2022/01/03 11:19:38;;;;;;;4.97;2.23;;;12.50;99.90;;;;;;10519096;28;20802;-77
2022/01/03 11:24:47;;;;;;;5.53;2.40;;;12.60;99.90;;;;;;10518266;28;20224;-77
2022/01/03 11:29:51;;;;;;;5.13;2.43;;;12.60;99.90;;;;;;10535948;28;20196;-78
2022/01/03 11:34:54;;;;;;;2.73;2.07;;;12.70;99.90;;;;;;10532939;28;20275;-78
2022/01/03 11:39:56;;;;;;;2.67;2.10;;;12.80;99.90;;;;;;10533399;28;20204;-78
2022/01/03 11:45:00;;;;;;;4.80;2.03;;;12.90;99.90;;;;;;10531825;28;20226;-75
2022/01/03 11:50:02;;;;;;;2.17;1.80;;;13.00;99.90;;;;;;10532977;28;20222;-77
2022/01/03 11:55:06;;;;;;;4.73;2.00;;;13.00;99.90;;;;;;10528998;28;20581;-76
2022/01/03 12:05:41;;;;;;;5.77;1.83;;;13.10;99.90;;;;;;10529264;28;20230;-76
2022/01/03 12:10:45;;;;;;;5.10;2.07;;;13.10;99.90;;;;;;10517756;28;20273;-76
2022/01/03 12:16:04;;;;;;;3.43;1.80;;;13.20;99.90;;;;;;10537469;28;20218;-79
2022/01/03 12:21:06;;;;;;;5.07;2.13;;;13.10;99.90;;;;;;10536989;28;20582;-77
2022/01/03 12:26:11;;;;;;;3.50;1.50;;;13.20;99.90;;;;;;10539445;28;20223;-79
2022/01/03 12:31:14;;;;;;;2.23;1.53;;;13.20;99.90;;;;;;10535884;28;20200;-79
2022/01/03 12:36:19;;;;;;;1.70;1.60;;;13.20;99.90;;;;;;10532708;28;20562;-77
2022/01/03 12:41:42;;;;;;;3.23;1.50;;;13.20;99.90;;;;;;10525401;28;20234;-77
2022/01/03 12:46:48;;;;;;;4.37;1.90;;;13.10;99.90;;;;;;10523761;28;20227;-76
2022/01/03 12:51:50;;;;;;;3.70;2.17;;;13.10;99.90;;;;;;10536807;22;20330;-82
2022/01/03 12:57:13;;;;;;;4.13;1.53;;;13.20;99.90;;;;;;10451933;28;20265;-81
2022/01/03 13:02:29;;;;;;;3.80;1.80;;;13.20;99.90;;;;;;10447105;28;20276;-82
2022/01/03 13:07:31;;;;;;;2.70;1.83;;;13.20;99.90;;;;;;10439692;28;20762;-81
2022/01/03 13:12:43;;;;;;;6.20;1.80;;;13.20;99.90;;;;;;10443780;28;20688;-82
2022/01/03 13:17:46;;;;;;;3.90;2.20;;;13.20;99.90;;;;;;10452715;28;20261;-81
2022/01/03 13:22:51;;;;;;;4.33;2.13;;;13.10;99.90;;;;;;10460679;28;20292;-81
2022/01/03 13:27:54;;;;;;;3.73;1.80;;;13.10;99.90;;;;;;10454915;28;20193;-82
2022/01/03 13:32:58;;;;;;;2.30;1.67;;;13.10;99.90;;;;;;10448542;28;20221;-79
2022/01/03 13:38:16;;;;;;;2.17;1.73;;;13.10;99.90;;;;;;10452397;28;20209;-80
2022/01/03 13:43:20;;;;;;;3.47;1.70;;;13.10;99.90;;;;;;10445119;28;20684;-81
2022/01/03 13:54:00;;;;;;;3.03;1.90;;;13.20;99.90;;;;;;10375588;28;20232;-82
2022/01/03 13:59:02;;;;;;;2.20;2.00;;;13.20;99.90;;;;;;10406636;28;20212;-82
2022/01/03 14:04:06;;;;;;;3.50;1.80;;;13.10;99.90;;;;;;10452304;28;20240;-81
2022/01/03 14:09:15;;;;;;;2.23;1.40;;;13.10;99.90;;;;;;10435202;28;20749;-81
2022/01/03 14:14:19;;;;;;;2.27;1.97;;;13.00;99.90;;;;;;10466796;28;20691;-81
2022/01/03 14:19:27;;;;;;;3.63;2.37;;;13.00;99.90;;;;;;10443119;28;20213;-81
2022/01/03 14:24:29;;;;;;;3.70;2.10;;;13.00;99.90;;;;;;10441495;28;20263;-81
2022/01/03 14:29:35;;;;;;;2.40;2.20;;;12.90;99.90;;;;;;10460807;28;20759;-81
2022/01/03 14:34:39;;;;;;;3.07;1.97;;;12.90;99.90;;;;;;10442509;28;20631;-81
2022/01/03 14:39:49;;;;;;;2.53;1.60;;;12.90;99.90;;;;;;10455996;28;20216;-82
2022/01/03 14:44:53;;;;;;;3.00;2.00;;;12.90;99.90;;;;;;10460563;28;20231;-80
2022/01/03 14:50:00;;;;;;;3.70;2.30;;;12.80;99.90;;;;;;10432771;28;20576;-81
2022/01/03 14:55:03;;;;;;;2.40;1.80;;;12.80;99.90;;;;;;10453044;28;20244;-82
2022/01/03 15:00:07;;;;;;;4.37;1.50;;;12.80;99.90;;;;;;10456162;28;20201;-81
2022/01/03 15:05:13;;;;;;;3.60;2.00;;;12.80;99.90;;;;;;10454206;28;20252;-82
2022/01/03 15:10:17;;;;;;;3.50;1.97;;;12.70;99.90;;;;;;10471358;28;20201;-81
2022/01/03 15:15:20;;;;;;;4.03;2.03;;;12.70;99.90;;;;;;10455816;28;20222;-81
2022/01/03 15:20:24;;;;;;;5.40;2.00;;;12.70;99.90;;;;;;10456807;28;20206;-81
2022/01/03 15:25:28;;;;;;;2.17;1.70;;;12.70;99.90;;;;;;10452312;28;20222;-81
2022/01/03 15:30:37;;;;;;;4.97;2.17;;;12.70;99.90;;;;;;10444181;28;20205;-81
2022/01/03 15:35:40;;;;;;;5.70;2.37;;;12.60;99.90;;;;;;10464135;28;20587;-82
2022/01/03 15:40:43;;;;;;;6.37;2.23;;;12.60;99.90;;;;;;10460764;28;20205;-81
2022/01/03 15:45:45;;;;;;;4.03;1.83;;;12.60;99.90;;;;;;10459029;28;20226;-81
2022/01/03 15:50:49;;;;;;;4.60;1.50;;;12.50;99.90;;;;;;10456174;28;20205;-81
2022/01/03 15:55:51;;;;;;;2.50;1.90;;;12.50;99.90;;;;;;10459853;28;20253;-82
2022/01/03 16:00:53;;;;;;;2.73;1.77;;;12.50;99.90;;;;;;10435901;28;20301;-81
2022/01/03 16:05:57;;;;;;;1.80;1.70;;;12.50;99.90;;;;;;10432174;28;20217;-81
2022/01/03 16:11:00;;;;;;;3.63;2.00;;;12.50;99.90;;;;;;10436011;28;20205;-82
2022/01/03 16:16:02;;;;;;;2.57;1.47;;;12.40;99.90;;;;;;10428371;28;20214;-81
2022/01/03 16:21:06;;;;;;;4.20;2.47;;;12.40;99.90;;;;;;10425807;28;20292;-82
2022/01/03 16:26:09;;;;;;;2.27;1.30;;;12.40;99.90;;;;;;10421839;28;20205;-81
2022/01/03 16:31:11;;;;;;;2.60;1.73;;;12.40;99.90;;;;;;10439146;28;20213;-81
2022/01/03 16:36:22;;;;;;;2.00;1.70;;;12.40;99.90;;;;;;10440392;28;20216;-81
2022/01/03 16:41:25;;;;;;;2.07;1.77;;;12.30;99.90;;;;;;10438008;28;20224;-82
2022/01/03 16:46:27;;;;;;;3.40;1.90;;;12.30;99.90;;;;;;10443672;28;20236;-80
2022/01/03 16:51:31;;;;;;;2.97;2.03;;;12.30;99.90;;;;;;10460860;28;20205;-80
2022/01/03 16:56:33;;;;;;;2.03;1.90;;;12.30;99.90;;;;;;10458977;28;20185;-80
2022/01/03 17:01:35;;;;;;;3.10;2.00;;;12.30;99.90;;;;;;10448469;28;20208;-80
2022/01/03 17:06:39;;;;;;;3.43;2.40;;;12.30;99.90;;;;;;10457007;28;20312;-80
2022/01/03 17:11:44;;;;;;;1.90;1.60;;;12.30;99.90;;;;;;10465626;28;20304;-81
2022/01/03 17:16:46;;;;;;;3.10;1.93;;;12.30;99.90;;;;;;10463131;28;20551;-80
2022/01/03 17:21:50;;;;;;;2.63;2.00;;;12.30;99.90;;;;;;10464393;28;20233;-80
2022/01/03 17:26:52;;;;;;;2.63;1.90;;;12.30;99.90;;;;;;10471937;28;20229;-80
2022/01/03 17:31:55;;;;;;;5.13;2.20;;;12.30;99.90;;;;;;10455807;28;20223;-81
2022/01/03 17:36:58;;;;;;;3.10;1.70;;;12.30;99.90;;;;;;10465820;28;20267;-81
2022/01/03 17:42:00;;;;;;;5.40;2.40;;;12.30;99.90;;;;;;10473374;28;20726;-81
2022/01/03 17:47:02;;;;;;;3.30;2.40;;;12.30;99.90;;;;;;10482111;28;20228;-82
2022/01/03 17:52:07;;;;;;;2.20;1.70;;;12.30;99.90;;;;;;10457458;28;20263;-81
2022/01/03 17:57:09;;;;;;;6.00;2.53;;;12.20;99.90;;;;;;10458312;28;20200;-81
2022/01/03 18:02:12;;;;;;;3.90;2.37;;;12.20;99.90;;;;;;10454978;28;20300;-81
2022/01/03 18:07:16;;;;;;;3.17;2.87;;;12.20;99.90;;;;;;10455373;28;20214;-81
2022/01/03 18:12:18;;;;;;;5.20;1.90;;;12.10;99.90;;;;;;10470290;28;20688;-81
2022/01/03 18:17:20;;;;;;;4.00;2.17;;;12.10;99.90;;;;;;10458782;28;20590;-81
2022/01/03 18:22:24;;;;;;;5.10;2.30;;;12.10;99.90;;;;;;10453421;28;20308;-82
2022/01/03 18:27:26;;;;;;;4.27;2.30;;;12.00;99.90;;;;;;10458274;28;20247;-80
2022/01/03 18:32:28;;;;;;;3.20;2.23;;;12.10;99.90;;;;;;10420779;28;20305;-81
2022/01/03 18:37:32;;;;;;;3.00;2.07;;;12.10;99.90;;;;;;10426865;28;20194;-80
2022/01/03 18:42:34;;;;;;;2.63;2.17;;;12.10;99.90;;;;;;10418950;28;20235;-82
2022/01/03 18:47:36;;;;;;;2.73;1.80;;;12.20;99.90;;;;;;10454464;28;20209;-81
2022/01/03 18:52:40;;;;;;;4.20;2.10;;;12.20;99.90;;;;;;10445489;28;20320;-82
2022/01/03 18:57:42;;;;;;;3.43;2.20;;;12.10;99.90;;;;;;10418321;28;20233;-78
2022/01/03 19:02:44;;;;;;;4.30;3.07;;;12.10;99.90;;;;;;10436394;28;20288;-84
2022/01/03 19:07:48;;;;;;;3.70;2.20;;;12.00;99.90;;;;;;10404037;28;20214;-83
2022/01/03 19:12:50;;;;;;;2.90;2.23;;;12.00;99.90;;;;;;10410811;28;20214;-82
2022/01/03 19:17:52;;;;;;;3.30;2.30;;;12.00;99.90;;;;;;10429723;28;20204;-84
2022/01/03 19:22:56;;;;;;;2.90;1.70;;;12.00;99.90;;;;;;10427318;28;20267;-84
2022/01/03 19:27:58;;;;;;;5.67;2.97;;;11.90;99.90;;;;;;10445302;28;20218;-84
2022/01/03 19:33:09;;;;;;;2.73;2.53;;;11.90;99.90;;;;;;10437909;28;20291;-82
2022/01/03 19:38:13;;;;;;;6.40;2.27;;;12.00;99.90;;;;;;10409262;28;20202;-83
2022/01/03 19:43:15;;;;;;;2.40;1.87;;;12.00;99.90;;;;;;10434955;28;20213;-83
2022/01/03 19:48:18;;;;;;;3.90;2.80;;;12.00;99.90;;;;;;10425091;28;20274;-83
2022/01/03 19:53:22;;;;;;;2.20;1.53;;;12.00;99.90;;;;;;10438379;28;20292;-83
2022/01/03 19:58:26;;;;;;;3.87;2.10;;;12.10;99.90;;;;;;10427267;28;20200;-83
2022/01/03 20:03:28;;;;;;;2.20;1.43;;;12.10;99.90;;;;;;10423538;28;20225;-84
2022/01/03 20:08:32;;;;;;;3.30;2.00;;;12.10;99.90;;;;;;10455858;28;20221;-83
2022/01/03 20:13:34;;;;;;;4.57;2.03;;;12.10;99.90;;;;;;10450743;28;20250;-83
2022/01/03 20:18:37;;;;;;;2.30;1.80;;;12.20;99.90;;;;;;10452389;28;20595;-84
2022/01/03 20:23:40;;;;;;;2.03;1.57;;;12.20;99.90;;;;;;10439129;28;20675;-84
2022/01/03 20:28:43;;;;;;;1.90;1.70;;;12.20;99.90;;;;;;10416841;28;20319;-85
2022/01/03 20:33:45;;;;;;;2.30;1.40;;;12.30;99.90;;;;;;10447013;28;20716;-84
2022/01/03 20:38:48;;;;;;;1.80;1.60;;;12.30;99.90;;;;;;10421452;28;20334;-83
2022/01/03 20:43:51;;;;;;;3.10;1.40;;;12.30;99.90;;;;;;10432739;28;20228;-84
2022/01/03 20:48:53;;;;;;;1.67;1.50;;;12.30;99.90;;;;;;10442980;28;20275;-84
2022/01/03 20:53:56;;;;;;;2.13;1.70;;;12.30;99.90;;;;;;10408175;28;20225;-83
2022/01/03 20:58:59;;;;;;;4.00;1.57;;;12.20;99.90;;;;;;10426515;28;20658;-83
2022/01/03 21:04:01;;;;;;;1.10;1.10;;;12.20;99.90;;;;;;10437362;28;20214;-84
2022/01/03 21:09:05;;;;;;;1.53;1.43;;;12.10;99.90;;;;;;10430433;28;20225;-83
2022/01/03 21:14:09;;;;;;;1.63;1.43;;;12.10;99.90;;;;;;10432084;28;20229;-84
2022/01/03 21:19:11;;;;;;;1.30;1.20;;;12.00;99.90;;;;;;10413035;28;20212;-83
2022/01/03 21:24:14;;;;;;;3.00;1.80;;;12.00;99.90;;;;;;10424017;28;20229;-84
2022/01/03 21:29:17;;;;;;;2.10;1.73;;;12.00;99.90;;;;;;10452345;28;20895;-84
2022/01/03 21:34:19;;;;;;;2.20;1.97;;;12.00;99.90;;;;;;10439282;28;20237;-83
2022/01/03 21:39:22;;;;;;;2.13;1.93;;;12.00;99.90;;;;;;10423437;28;20293;-84
2022/01/03 21:44:25;;;;;;;1.80;1.70;;;12.00;99.90;;;;;;10436592;28;20234;-85
2022/01/03 21:49:27;;;;;;;2.97;1.83;;;11.90;99.90;;;;;;10439104;28;20877;-83
2022/01/03 21:54:30;;;;;;;3.07;2.07;;;11.90;99.90;;;;;;10438118;28;20274;-84
2022/01/03 21:59:33;;;;;;;1.87;1.77;;;11.90;99.90;;;;;;10414986;28;20202;-83
2022/01/03 22:04:35;;;;;;;6.47;2.17;;;11.90;99.90;;;;;;10449857;28;20217;-83
2022/01/03 22:09:39;;;;;;;2.03;1.77;;;11.90;99.90;;;;;;10431028;28;20302;-84
2022/01/03 22:14:41;;;;;;;1.53;1.43;;;11.90;99.90;;;;;;10442690;28;20235;-83
2022/01/03 22:19:43;;;;;;;2.07;1.70;;;11.90;99.90;;;;;;10445911;28;20628;-83
2022/01/03 22:24:47;;;;;;;2.47;1.80;;;11.90;99.90;;;;;;10428501;28;20249;-85
2022/01/03 22:29:50;;;;;;;2.90;1.90;;;11.90;99.90;;;;;;10416541;28;20667;-84
2022/01/03 22:34:52;;;;;;;1.83;1.70;;;11.90;99.90;;;;;;10413324;28;20465;-83
2022/01/03 22:39:56;;;;;;;3.07;1.40;;;11.80;99.90;;;;;;10429323;28;20218;-84
2022/01/03 22:44:58;;;;;;;2.30;1.63;;;11.90;99.90;;;;;;10430970;28;20943;-83
2022/01/03 22:50:00;;;;;;;1.80;1.70;;;11.80;99.90;;;;;;10417129;28;20551;-83
2022/01/03 22:55:05;;;;;;;1.70;1.37;;;11.80;99.90;;;;;;10437284;28;20233;-83
2022/01/03 23:00:12;;;;;;;2.50;1.43;;;11.90;99.90;;;;;;10438320;28;20293;-84
2022/01/03 23:05:14;;;;;;;1.50;1.40;;;11.90;99.90;;;;;;10421826;28;20267;-83
2022/01/03 23:10:17;;;;;;;1.53;1.40;;;11.90;99.90;;;;;;10460997;28;20208;-85
2022/01/03 23:15:19;;;;;;;2.50;1.57;;;12.00;99.90;;;;;;10424104;28;20785;-84
2022/01/03 23:20:22;;;;;;;3.10;1.50;;;12.00;99.90;;;;;;10442702;28;20229;-84
2022/01/03 23:25:26;;;;;;;3.93;1.40;;;12.10;99.90;;;;;;10424992;28;20214;-84
2022/01/03 23:30:28;;;;;;;1.67;1.57;;;12.10;99.90;;;;;;10445725;28;20197;-84
2022/01/03 23:35:32;;;;;;;2.07;1.60;;;12.20;99.90;;;;;;10417907;28;20619;-84
2022/01/03 23:40:36;;;;;;;1.57;1.30;;;12.20;99.90;;;;;;10413672;28;20198;-84
2022/01/03 23:45:38;;;;;;;1.10;1.10;;;12.20;99.90;;;;;;10430031;28;20303;-84
2022/01/03 23:50:40;;;;;;;2.43;1.63;;;12.20;99.90;;;;;;10404732;28;20231;-84
2022/01/03 23:55:44;;;;;;;2.70;1.70;;;12.20;99.90;;;;;;10413305;28;20230;-84
